Terminal Aerodrome Forecast
Issued by NWS Salt Lake City, UT

Home | Current Version | Previous Version | Text Only | Print | Product List | Glossary On
Versions: 1 2 3 4 5 6 7 8 9 10 11 12 13 14 15 16 17 18 19 20 21 22 23 24 25 26 27 28 29 30 31 32 33 34 35 36
000
FTUS45 KSLC 280043 AAB
TAFSLC
TAF AMD
KSLC 280043Z 2801/2906 33011KT P6SM VCSH SCT040 BKN080
     FM280200 34010KT P6SM SCT060 BKN100
     FM281000 31008KT P6SM VCSH SCT020 BKN040
     FM281400 32008KT 2SM -SHSN BR SCT007 BKN015
     FM282000 33012G20KT P6SM VCSH SCT020 BKN040
     FM290300 33010KT P6SM SCT040 BKN080=

USA.gov is the U.S. government's official web portal to all federal, state and local government web resources and services.